Terminal Aerodrome Forecast
Issued by NWS Atlanta, GA

Home | Current Version | Previous Version | Text Only | Print | Product List | Glossary On
Versions: 1 2 3 4 5 6 7 8 9 10 11 12 13 14 15
000
FTUS42 KFFC 180539
TAFMCN
TAF
KMCN 180539Z 1806/1906 00000KT P6SM FEW090 FEW250
      TEMPO 1812/1815 3SM BR SCT005
     FM181500 17008KT P6SM SCT060
     FM181800 22010G18KT P6SM SCT050
     FM182300 23012G20KT P6SM VCSH BKN040 PROB30 1904/1906
      29015G25KT SHRA OVC025=

USA.gov is the U.S. government's official web portal to all federal, state and local government web resources and services.